TKY78M DTTJ-HEGN
Flight info
| Callsign | TKY78M |
|---|---|
| Flight time | 2h 33m |
| Altitude | 41000 |
| Route | MITBA1A MITBA DCT TANLI A411 LOSUL M855 MMA P751 DASUM Y234 FYM M872 BOPOB BOPOB1A |
| Aircraft | A359/H-SDE2E3GHIJ3J4J5LM1ORWXY/LB1D1 |
Departure
| Time | 2026-04-26 17:05 |
|---|---|
| Airport | Djerba Zarzis International Airport (DTTJ) |
Arrival
| Time | 2026-04-26 19:39 |
|---|---|
| Airport | Hurghada International Airport (HEGN) |
| Time | Latitude | Longitude | Altitude | Speed | Heading |
|---|---|---|---|---|---|
| 2026-04-26 16:22 | 33.87239 | 10.77392 | 26 ft | 0 kts | 128° |
| 2026-04-26 16:23 | 33.87246 | 10.77381 | 33 ft | 0 kts | 132° |
| 2026-04-26 16:55 | 33.87257 | 10.77367 | 31 ft | 3 kts | 132° |
| 2026-04-26 16:55 | 33.87270 | 10.77349 | 30 ft | 1 kts | 132° |
| 2026-04-26 16:55 | 33.87284 | 10.77331 | 31 ft | 3 kts | 129° |
| 2026-04-26 16:56 | 33.87303 | 10.77293 | 32 ft | 3 kts | 84° |
| 2026-04-26 16:56 | 33.87301 | 10.77277 | 29 ft | 3 kts | 45° |
| 2026-04-26 16:56 | 33.87284 | 10.77262 | 32 ft | 3 kts | 27° |
| 2026-04-26 16:57 | 33.87266 | 10.77250 | 30 ft | 1 kts | 27° |
| 2026-04-26 16:57 | 33.87265 | 10.77250 | 30 ft | 0 kts | 26° |
| 2026-04-26 17:00 | 33.87295 | 10.77267 | 29 ft | 7 kts | 22° |
| 2026-04-26 17:01 | 33.87353 | 10.77263 | 33 ft | 10 kts | 330° |
| 2026-04-26 17:01 | 33.87368 | 10.77182 | 33 ft | 12 kts | 264° |
| 2026-04-26 17:01 | 33.87361 | 10.77056 | 33 ft | 19 kts | 268° |
| 2026-04-26 17:01 | 33.87356 | 10.76868 | 31 ft | 26 kts | 268° |
| 2026-04-26 17:02 | 33.87350 | 10.76630 | 26 ft | 28 kts | 269° |
| 2026-04-26 17:02 | 33.87343 | 10.76395 | 28 ft | 29 kts | 268° |
| 2026-04-26 17:02 | 33.87339 | 10.76136 | 23 ft | 32 kts | 275° |
| 2026-04-26 17:02 | 33.87450 | 10.76052 | 26 ft | 15 kts | 356° |
| 2026-04-26 17:03 | 33.87503 | 10.76116 | 28 ft | 12 kts | 85° |
| 2026-04-26 17:03 | 33.87504 | 10.76133 | 29 ft | 0 kts | 86° |
| 2026-04-26 17:05 | 33.87511 | 10.76363 | 29 ft | 65 kts | 88° |
| 2026-04-26 17:05 | 33.87532 | 10.77213 | 28 ft | 135 kts | 88° |
| 2026-04-26 17:05 | 33.87550 | 10.78467 | 558 ft | 152 kts | 87° |
| 2026-04-26 17:05 | 33.87262 | 10.79684 | 1361 ft | 158 kts | 119° |
| 2026-04-26 17:06 | 33.86576 | 10.80839 | 1755 ft | 188 kts | 125° |
| 2026-04-26 17:06 | 33.85744 | 10.82186 | 2166 ft | 210 kts | 124° |
| 2026-04-26 17:06 | 33.84892 | 10.83728 | 2612 ft | 236 kts | 122° |
| 2026-04-26 17:06 | 33.83949 | 10.85483 | 3080 ft | 261 kts | 122° |
| 2026-04-26 17:07 | 33.82943 | 10.87352 | 3893 ft | 270 kts | 122° |
| 2026-04-26 17:07 | 33.81934 | 10.89235 | 4763 ft | 274 kts | 122° |
| 2026-04-26 17:07 | 33.80875 | 10.91209 | 5673 ft | 279 kts | 122° |
| 2026-04-26 17:07 | 33.79816 | 10.93190 | 6615 ft | 284 kts | 122° |
| 2026-04-26 17:08 | 33.78741 | 10.95206 | 7543 ft | 289 kts | 122° |
| 2026-04-26 17:08 | 33.77661 | 10.97237 | 8474 ft | 295 kts | 122° |
| 2026-04-26 17:08 | 33.76550 | 10.99326 | 9468 ft | 299 kts | 122° |
| 2026-04-26 17:08 | 33.75419 | 11.01451 | 10380 ft | 306 kts | 122° |
| 2026-04-26 17:09 | 33.74235 | 11.03674 | 10852 ft | 328 kts | 122° |
| 2026-04-26 17:09 | 33.73399 | 11.05242 | 11092 ft | 344 kts | 122° |
| 2026-04-26 17:09 | 33.71620 | 11.08580 | 11914 ft | 361 kts | 122° |
| 2026-04-26 17:09 | 33.70251 | 11.11143 | 12733 ft | 367 kts | 122° |
| 2026-04-26 17:10 | 33.68859 | 11.13747 | 13584 ft | 373 kts | 122° |
| 2026-04-26 17:10 | 33.67448 | 11.16385 | 14352 ft | 378 kts | 122° |
| 2026-04-26 17:10 | 33.66022 | 11.19051 | 14862 ft | 382 kts | 122° |
| 2026-04-26 17:10 | 33.64597 | 11.21711 | 15084 ft | 385 kts | 122° |
| 2026-04-26 17:11 | 33.63145 | 11.24421 | 15118 ft | 387 kts | 122° |
| 2026-04-26 17:11 | 33.61689 | 11.27137 | 15117 ft | 388 kts | 122° |
| 2026-04-26 17:11 | 33.60227 | 11.29860 | 15115 ft | 388 kts | 122° |
| 2026-04-26 17:11 | 33.58764 | 11.32584 | 15198 ft | 389 kts | 122° |
| 2026-04-26 17:12 | 33.55805 | 11.38089 | 16530 ft | 396 kts | 122° |
| 2026-04-26 17:12 | 33.54322 | 11.40844 | 17291 ft | 401 kts | 122° |
| 2026-04-26 17:13 | 33.51251 | 11.46545 | 18699 ft | 412 kts | 123° |
| 2026-04-26 17:13 | 33.49771 | 11.49510 | 19365 ft | 417 kts | 116° |
| 2026-04-26 17:13 | 33.47377 | 11.55921 | 20737 ft | 426 kts | 111° |
| 2026-04-26 17:14 | 33.46268 | 11.59231 | 21434 ft | 431 kts | 111° |
| 2026-04-26 17:14 | 33.44085 | 11.65949 | 22794 ft | 441 kts | 110° |
| 2026-04-26 17:14 | 33.42966 | 11.69392 | 23460 ft | 446 kts | 111° |
| 2026-04-26 17:15 | 33.40669 | 11.76385 | 24629 ft | 456 kts | 111° |
| 2026-04-26 17:15 | 33.39497 | 11.79922 | 25214 ft | 460 kts | 111° |
| 2026-04-26 17:15 | 33.38309 | 11.83494 | 25784 ft | 464 kts | 111° |
| 2026-04-26 17:16 | 33.37111 | 11.87092 | 26355 ft | 468 kts | 111° |
| 2026-04-26 17:16 | 33.35898 | 11.90726 | 26920 ft | 472 kts | 112° |
| 2026-04-26 17:16 | 33.34694 | 11.94332 | 27462 ft | 476 kts | 112° |
| 2026-04-26 17:16 | 33.33460 | 11.98026 | 28031 ft | 480 kts | 112° |
| 2026-04-26 17:17 | 33.32213 | 12.01753 | 28558 ft | 485 kts | 112° |
| 2026-04-26 17:17 | 33.30957 | 12.05506 | 29091 ft | 489 kts | 112° |
| 2026-04-26 17:17 | 33.29686 | 12.09299 | 29620 ft | 493 kts | 112° |
| 2026-04-26 17:17 | 33.28592 | 12.13196 | 30096 ft | 498 kts | 104° |
| 2026-04-26 17:18 | 33.27939 | 12.17276 | 30521 ft | 501 kts | 98° |
| 2026-04-26 17:18 | 33.27433 | 12.21403 | 30966 ft | 504 kts | 97° |
| 2026-04-26 17:18 | 33.26994 | 12.25511 | 31387 ft | 507 kts | 96° |
| 2026-04-26 17:18 | 33.26574 | 12.29707 | 31808 ft | 510 kts | 96° |
| 2026-04-26 17:19 | 33.25734 | 12.38166 | 32646 ft | 515 kts | 96° |
| 2026-04-26 17:19 | 33.25300 | 12.42426 | 33053 ft | 518 kts | 96° |
| 2026-04-26 17:19 | 33.24856 | 12.46701 | 33441 ft | 520 kts | 96° |
| 2026-04-26 17:20 | 33.24404 | 12.50998 | 33827 ft | 522 kts | 96° |
| 2026-04-26 17:20 | 33.24101 | 12.53849 | 34074 ft | 524 kts | 96° |
| 2026-04-26 17:20 | 33.23483 | 12.59638 | 34481 ft | 527 kts | 96° |
| 2026-04-26 17:20 | 33.23023 | 12.63935 | 34781 ft | 529 kts | 96° |
| 2026-04-26 17:21 | 33.22555 | 12.68287 | 35166 ft | 529 kts | 96° |
| 2026-04-26 17:21 | 33.22086 | 12.72636 | 35543 ft | 529 kts | 96° |
| 2026-04-26 17:21 | 33.21615 | 12.76992 | 35896 ft | 529 kts | 96° |
| 2026-04-26 17:21 | 33.21142 | 12.81349 | 36240 ft | 529 kts | 96° |
| 2026-04-26 17:22 | 33.20668 | 12.85709 | 36574 ft | 530 kts | 96° |
| 2026-04-26 17:22 | 33.20191 | 12.90078 | 36907 ft | 530 kts | 96° |
| 2026-04-26 17:22 | 33.19714 | 12.94441 | 37246 ft | 531 kts | 96° |
| 2026-04-26 17:22 | 33.19240 | 12.98754 | 37571 ft | 531 kts | 96° |
| 2026-04-26 17:23 | 33.18759 | 13.03121 | 37907 ft | 531 kts | 96° |
| 2026-04-26 17:23 | 33.18276 | 13.07492 | 38248 ft | 531 kts | 96° |
| 2026-04-26 17:23 | 33.17791 | 13.11857 | 38569 ft | 531 kts | 96° |
| 2026-04-26 17:23 | 33.17305 | 13.16230 | 38858 ft | 531 kts | 96° |
| 2026-04-26 17:24 | 33.16817 | 13.20598 | 39100 ft | 531 kts | 96° |
| 2026-04-26 17:24 | 33.16327 | 13.24970 | 39348 ft | 531 kts | 96° |
| 2026-04-26 17:24 | 33.15837 | 13.29334 | 39596 ft | 531 kts | 96° |
| 2026-04-26 17:24 | 33.15345 | 13.33696 | 39824 ft | 531 kts | 96° |
| 2026-04-26 17:25 | 33.14856 | 13.38011 | 40046 ft | 531 kts | 96° |
| 2026-04-26 17:25 | 33.14344 | 13.42369 | 40281 ft | 531 kts | 97° |
| 2026-04-26 17:25 | 33.13812 | 13.46729 | 40507 ft | 531 kts | 97° |
| 2026-04-26 17:25 | 33.13273 | 13.51085 | 40719 ft | 531 kts | 97° |
| 2026-04-26 17:26 | 33.12731 | 13.55442 | 40925 ft | 531 kts | 97° |
| 2026-04-26 17:26 | 33.12190 | 13.59802 | 41079 ft | 532 kts | 97° |
| 2026-04-26 17:26 | 33.11102 | 13.68577 | 41118 ft | 535 kts | 97° |
| 2026-04-26 17:27 | 33.10019 | 13.77294 | 41121 ft | 535 kts | 97° |
| 2026-04-26 17:27 | 33.08925 | 13.86066 | 41120 ft | 535 kts | 97° |
| 2026-04-26 17:28 | 33.07824 | 13.94834 | 41123 ft | 535 kts | 97° |
| 2026-04-26 17:28 | 33.06717 | 14.03600 | 41118 ft | 535 kts | 97° |
| 2026-04-26 17:29 | 33.05792 | 14.10883 | 41118 ft | 535 kts | 98° |
| 2026-04-26 17:29 | 33.04488 | 14.21098 | 41120 ft | 540 kts | 98° |
| 2026-04-26 17:30 | 33.03344 | 14.30000 | 41121 ft | 546 kts | 98° |
| 2026-04-26 17:30 | 33.02186 | 14.38958 | 41121 ft | 547 kts | 98° |
| 2026-04-26 17:31 | 33.01022 | 14.47913 | 41124 ft | 547 kts | 98° |
| 2026-04-26 17:31 | 32.99859 | 14.56809 | 41124 ft | 548 kts | 98° |
| 2026-04-26 17:32 | 32.98677 | 14.65794 | 41125 ft | 549 kts | 98° |
| 2026-04-26 17:32 | 32.97490 | 14.74771 | 41125 ft | 549 kts | 98° |
| 2026-04-26 17:33 | 32.96295 | 14.83758 | 41127 ft | 549 kts | 98° |
| 2026-04-26 17:34 | 32.96445 | 14.97168 | 41084 ft | 542 kts | 72° |
| 2026-04-26 17:34 | 32.98901 | 15.05665 | 41127 ft | 545 kts | 65° |
| 2026-04-26 17:35 | 33.01701 | 15.14096 | 41136 ft | 549 kts | 64° |
| 2026-04-26 17:35 | 33.04504 | 15.22499 | 41141 ft | 549 kts | 64° |
| 2026-04-26 17:36 | 33.06297 | 15.31361 | 41143 ft | 555 kts | 84° |
| 2026-04-26 17:36 | 33.06254 | 15.35967 | 41142 ft | 557 kts | 95° |
| 2026-04-26 17:36 | 33.05804 | 15.40557 | 41136 ft | 557 kts | 97° |
| 2026-04-26 17:37 | 33.04597 | 15.49687 | 41142 ft | 558 kts | 99° |
| 2026-04-26 17:37 | 33.03300 | 15.58806 | 41144 ft | 558 kts | 99° |
| 2026-04-26 17:38 | 33.01422 | 15.72435 | 41151 ft | 558 kts | 98° |
| 2026-04-26 17:38 | 33.00186 | 15.81556 | 41151 ft | 558 kts | 98° |
| 2026-04-26 17:39 | 32.98536 | 15.90562 | 41161 ft | 557 kts | 113° |
| 2026-04-26 17:39 | 32.96790 | 15.94583 | 41154 ft | 553 kts | 126° |
| 2026-04-26 17:39 | 32.94426 | 15.98169 | 41151 ft | 548 kts | 137° |
| 2026-04-26 17:40 | 32.91594 | 16.01158 | 41150 ft | 542 kts | 148° |
| 2026-04-26 17:40 | 32.89521 | 16.02791 | 41157 ft | 538 kts | 154° |
| 2026-04-26 17:40 | 32.85589 | 16.06533 | 41151 ft | 549 kts | 134° |
| 2026-04-26 17:40 | 32.83368 | 16.10240 | 41157 ft | 554 kts | 120° |
| 2026-04-26 17:41 | 32.81923 | 16.14485 | 41154 ft | 556 kts | 104° |
| 2026-04-26 17:41 | 32.81345 | 16.19022 | 41158 ft | 555 kts | 90° |
| 2026-04-26 17:41 | 32.81661 | 16.23555 | 41164 ft | 550 kts | 75° |
| 2026-04-26 17:41 | 32.82503 | 16.27922 | 41164 ft | 550 kts | 73° |
| 2026-04-26 17:42 | 32.83533 | 16.36966 | 41156 ft | 556 kts | 87° |
| 2026-04-26 17:42 | 32.82995 | 16.46150 | 41162 ft | 558 kts | 97° |
| 2026-04-26 17:43 | 32.81700 | 16.55247 | 41157 ft | 559 kts | 100° |
| 2026-04-26 17:43 | 32.80294 | 16.64266 | 41164 ft | 559 kts | 100° |
| 2026-04-26 17:44 | 32.78933 | 16.73364 | 41169 ft | 559 kts | 99° |
| 2026-04-26 17:44 | 32.77615 | 16.82465 | 41162 ft | 559 kts | 99° |
| 2026-04-26 17:45 | 32.76302 | 16.91571 | 41165 ft | 559 kts | 99° |
| 2026-04-26 17:45 | 32.75134 | 17.00700 | 41160 ft | 559 kts | 92° |
| 2026-04-26 17:46 | 32.74960 | 17.09852 | 41165 ft | 558 kts | 88° |
| 2026-04-26 17:46 | 32.74988 | 17.19070 | 41174 ft | 558 kts | 88° |
| 2026-04-26 17:47 | 32.75031 | 17.26736 | 41177 ft | 558 kts | 88° |
| 2026-04-26 17:47 | 32.75065 | 17.37509 | 41167 ft | 558 kts | 88° |
| 2026-04-26 17:48 | 32.75072 | 17.46682 | 41171 ft | 559 kts | 88° |
| 2026-04-26 17:48 | 32.75068 | 17.55910 | 41170 ft | 559 kts | 88° |
| 2026-04-26 17:49 | 32.75059 | 17.65143 | 41182 ft | 559 kts | 88° |
| 2026-04-26 17:49 | 32.75044 | 17.74379 | 41165 ft | 559 kts | 88° |
| 2026-04-26 17:50 | 32.75022 | 17.83554 | 41169 ft | 559 kts | 88° |
| 2026-04-26 17:50 | 32.74993 | 17.92795 | 41173 ft | 559 kts | 88° |
| 2026-04-26 17:51 | 32.74958 | 18.02036 | 41172 ft | 560 kts | 88° |
| 2026-04-26 17:51 | 32.74392 | 18.11253 | 41176 ft | 562 kts | 103° |
| 2026-04-26 17:52 | 32.72466 | 18.20239 | 41172 ft | 562 kts | 105° |
| 2026-04-26 17:52 | 32.70310 | 18.29096 | 41174 ft | 562 kts | 107° |
| 2026-04-26 17:53 | 32.68109 | 18.38005 | 41173 ft | 563 kts | 106° |
| 2026-04-26 17:54 | 32.64841 | 18.51382 | 41175 ft | 563 kts | 106° |
| 2026-04-26 17:54 | 32.62667 | 18.60307 | 41176 ft | 563 kts | 106° |
| 2026-04-26 17:55 | 32.60502 | 18.69168 | 41177 ft | 563 kts | 106° |
| 2026-04-26 17:55 | 32.58315 | 18.78077 | 41175 ft | 563 kts | 106° |
| 2026-04-26 17:56 | 32.56120 | 18.86994 | 41178 ft | 563 kts | 106° |
| 2026-04-26 17:57 | 32.51722 | 19.04760 | 41175 ft | 564 kts | 107° |
| 2026-04-26 17:57 | 32.49505 | 19.13673 | 41179 ft | 564 kts | 107° |
| 2026-04-26 17:58 | 32.45052 | 19.31486 | 41174 ft | 564 kts | 107° |
| 2026-04-26 17:59 | 32.41710 | 19.44779 | 41175 ft | 564 kts | 107° |
| 2026-04-26 17:59 | 32.39465 | 19.53672 | 41170 ft | 564 kts | 107° |
| 2026-04-26 18:00 | 32.37210 | 19.62573 | 41170 ft | 565 kts | 107° |
| 2026-04-26 18:00 | 32.34948 | 19.71475 | 41170 ft | 565 kts | 107° |
| 2026-04-26 18:01 | 32.32696 | 19.80307 | 41173 ft | 565 kts | 107° |
| 2026-04-26 18:01 | 32.30423 | 19.89193 | 41173 ft | 565 kts | 107° |
| 2026-04-26 18:02 | 32.28528 | 19.96579 | 41174 ft | 565 kts | 107° |
| 2026-04-26 18:02 | 32.25855 | 20.06965 | 41172 ft | 565 kts | 107° |
| 2026-04-26 18:03 | 32.23563 | 20.15842 | 41182 ft | 565 kts | 107° |
| 2026-04-26 18:03 | 32.21311 | 20.24675 | 41166 ft | 565 kts | 104° |
| 2026-04-26 18:04 | 32.20204 | 20.33839 | 41170 ft | 564 kts | 94° |
| 2026-04-26 18:05 | 32.19346 | 20.47689 | 41172 ft | 564 kts | 92° |
| 2026-04-26 18:05 | 32.18820 | 20.56932 | 41185 ft | 564 kts | 92° |
| 2026-04-26 18:06 | 32.18266 | 20.66103 | 41171 ft | 564 kts | 92° |
| 2026-04-26 18:06 | 32.17686 | 20.75335 | 41172 ft | 564 kts | 93° |
| 2026-04-26 18:07 | 32.17097 | 20.84557 | 41166 ft | 564 kts | 93° |
| 2026-04-26 18:07 | 32.16502 | 20.93784 | 41165 ft | 564 kts | 93° |
| 2026-04-26 18:08 | 32.15906 | 21.02950 | 41163 ft | 564 kts | 93° |
| 2026-04-26 18:08 | 32.15298 | 21.12177 | 41160 ft | 564 kts | 93° |
| 2026-04-26 18:09 | 32.14597 | 21.21393 | 41143 ft | 565 kts | 101° |
| 2026-04-26 18:09 | 32.13469 | 21.25823 | 41160 ft | 564 kts | 114° |
| 2026-04-26 18:09 | 32.11624 | 21.29887 | 41153 ft | 561 kts | 126° |
| 2026-04-26 18:09 | 32.09188 | 21.33444 | 41153 ft | 556 kts | 138° |
| 2026-04-26 18:10 | 32.06328 | 21.36362 | 41152 ft | 550 kts | 149° |
| 2026-04-26 18:10 | 32.03373 | 21.39249 | 41156 ft | 556 kts | 136° |
| 2026-04-26 18:10 | 32.01018 | 21.42890 | 41140 ft | 563 kts | 121° |
| 2026-04-26 18:10 | 31.99419 | 21.47107 | 41137 ft | 567 kts | 107° |
| 2026-04-26 18:11 | 31.98687 | 21.51654 | 41242 ft | 564 kts | 91° |
| 2026-04-26 18:11 | 31.98873 | 21.56217 | 41489 ft | 555 kts | 77° |
| 2026-04-26 18:11 | 31.99867 | 21.60567 | 41717 ft | 548 kts | 66° |
| 2026-04-26 18:11 | 32.01066 | 21.64823 | 41893 ft | 549 kts | 70° |
| 2026-04-26 18:12 | 32.01966 | 21.69211 | 42048 ft | 553 kts | 77° |
| 2026-04-26 18:12 | 32.02497 | 21.78244 | 42141 ft | 562 kts | 90° |
| 2026-04-26 18:13 | 32.01965 | 21.87470 | 42140 ft | 566 kts | 94° |
| 2026-04-26 18:13 | 32.01161 | 21.96708 | 42134 ft | 567 kts | 95° |
| 2026-04-26 18:14 | 32.00397 | 22.05947 | 42194 ft | 565 kts | 94° |
| 2026-04-26 18:14 | 32.00044 | 22.10529 | 42662 ft | 557 kts | 94° |
| 2026-04-26 18:14 | 31.99707 | 22.14994 | 43048 ft | 553 kts | 94° |
| 2026-04-26 18:15 | 31.99036 | 22.24013 | 43137 ft | 553 kts | 94° |
| 2026-04-26 18:15 | 31.98358 | 22.33040 | 43133 ft | 554 kts | 94° |
| 2026-04-26 18:16 | 31.97677 | 22.42078 | 43133 ft | 554 kts | 94° |
| 2026-04-26 18:16 | 31.96638 | 22.55579 | 43118 ft | 554 kts | 94° |
| 2026-04-26 18:17 | 31.95935 | 22.64623 | 43128 ft | 555 kts | 94° |
| 2026-04-26 18:17 | 31.95225 | 22.73666 | 43113 ft | 555 kts | 94° |
| 2026-04-26 18:18 | 31.94515 | 22.82653 | 43128 ft | 555 kts | 94° |
| 2026-04-26 18:18 | 31.93793 | 22.91699 | 43126 ft | 555 kts | 94° |
| 2026-04-26 18:19 | 31.93065 | 23.00745 | 43111 ft | 555 kts | 94° |
| 2026-04-26 18:19 | 31.92330 | 23.09791 | 43114 ft | 555 kts | 95° |
| 2026-04-26 18:20 | 31.91588 | 23.18843 | 43120 ft | 556 kts | 95° |
| 2026-04-26 18:20 | 31.90966 | 23.26368 | 43116 ft | 556 kts | 95° |
| 2026-04-26 18:21 | 31.90089 | 23.36889 | 43125 ft | 556 kts | 95° |
| 2026-04-26 18:21 | 31.89326 | 23.45950 | 43124 ft | 556 kts | 95° |
| 2026-04-26 18:22 | 31.88558 | 23.55010 | 43118 ft | 556 kts | 95° |
| 2026-04-26 18:22 | 31.87782 | 23.64071 | 43125 ft | 557 kts | 95° |
| 2026-04-26 18:23 | 31.87005 | 23.73073 | 43116 ft | 557 kts | 95° |
| 2026-04-26 18:23 | 31.86216 | 23.82136 | 43119 ft | 557 kts | 95° |
| 2026-04-26 18:24 | 31.85421 | 23.91204 | 43114 ft | 557 kts | 95° |
| 2026-04-26 18:24 | 31.84429 | 24.00247 | 43122 ft | 558 kts | 99° |
| 2026-04-26 18:25 | 31.83126 | 24.09178 | 43116 ft | 558 kts | 100° |
| 2026-04-26 18:25 | 31.81807 | 24.18174 | 43111 ft | 559 kts | 99° |
| 2026-04-26 18:26 | 31.80537 | 24.27191 | 43106 ft | 559 kts | 99° |
| 2026-04-26 18:26 | 31.79289 | 24.36207 | 43109 ft | 559 kts | 99° |
| 2026-04-26 18:27 | 31.78044 | 24.45173 | 43107 ft | 559 kts | 99° |
| 2026-04-26 18:27 | 31.76783 | 24.54194 | 43105 ft | 560 kts | 99° |
| 2026-04-26 18:28 | 31.75506 | 24.63272 | 43105 ft | 567 kts | 99° |
| 2026-04-26 18:28 | 31.74206 | 24.72450 | 43105 ft | 571 kts | 99° |
| 2026-04-26 18:29 | 31.72894 | 24.81669 | 43094 ft | 572 kts | 99° |
| 2026-04-26 18:29 | 31.71585 | 24.90823 | 43096 ft | 572 kts | 99° |
| 2026-04-26 18:30 | 31.70260 | 25.00037 | 43098 ft | 572 kts | 99° |
| 2026-04-26 18:30 | 31.68928 | 25.09247 | 43092 ft | 572 kts | 100° |
| 2026-04-26 18:31 | 31.67628 | 25.18465 | 43086 ft | 572 kts | 98° |
| 2026-04-26 18:31 | 31.66533 | 25.27654 | 43081 ft | 572 kts | 97° |
| 2026-04-26 18:32 | 31.65463 | 25.36909 | 43075 ft | 572 kts | 98° |
| 2026-04-26 18:32 | 31.64355 | 25.46159 | 43076 ft | 573 kts | 98° |
| 2026-04-26 18:33 | 31.63218 | 25.55411 | 43073 ft | 573 kts | 98° |
| 2026-04-26 18:33 | 31.62019 | 25.64654 | 43071 ft | 573 kts | 102° |
| 2026-04-26 18:34 | 31.59428 | 25.73427 | 43079 ft | 569 kts | 117° |
| 2026-04-26 18:34 | 31.55901 | 25.81722 | 43070 ft | 568 kts | 121° |
| 2026-04-26 18:35 | 31.52203 | 25.89830 | 43067 ft | 568 kts | 121° |
| 2026-04-26 18:35 | 31.48493 | 25.97998 | 43067 ft | 568 kts | 121° |
| 2026-04-26 18:36 | 31.44814 | 26.06196 | 43062 ft | 568 kts | 121° |
| 2026-04-26 18:36 | 31.41148 | 26.14394 | 43058 ft | 568 kts | 121° |
| 2026-04-26 18:37 | 31.37501 | 26.22534 | 43063 ft | 568 kts | 121° |
| 2026-04-26 18:37 | 31.33823 | 26.30716 | 43069 ft | 568 kts | 121° |
| 2026-04-26 18:38 | 31.30140 | 26.38890 | 43062 ft | 568 kts | 121° |
| 2026-04-26 18:38 | 31.26452 | 26.47057 | 43052 ft | 568 kts | 121° |
| 2026-04-26 18:39 | 31.22758 | 26.55218 | 43051 ft | 568 kts | 121° |
| 2026-04-26 18:39 | 31.19084 | 26.63318 | 43047 ft | 568 kts | 121° |
| 2026-04-26 18:40 | 31.15381 | 26.71465 | 43044 ft | 568 kts | 121° |
| 2026-04-26 18:40 | 31.11674 | 26.79603 | 43040 ft | 568 kts | 121° |
| 2026-04-26 18:41 | 31.07960 | 26.87739 | 43038 ft | 568 kts | 122° |
| 2026-04-26 18:41 | 31.04243 | 26.95865 | 43039 ft | 568 kts | 122° |
| 2026-04-26 18:42 | 31.00518 | 27.03989 | 43035 ft | 568 kts | 122° |
| 2026-04-26 18:42 | 30.96816 | 27.12046 | 43032 ft | 568 kts | 122° |
| 2026-04-26 18:43 | 30.93086 | 27.20148 | 43031 ft | 568 kts | 122° |
| 2026-04-26 18:43 | 30.89348 | 27.28247 | 43028 ft | 567 kts | 122° |
| 2026-04-26 18:44 | 30.85612 | 27.36328 | 43031 ft | 567 kts | 122° |
| 2026-04-26 18:44 | 30.81868 | 27.44406 | 43033 ft | 567 kts | 122° |
| 2026-04-26 18:45 | 30.78146 | 27.52422 | 43028 ft | 567 kts | 122° |
| 2026-04-26 18:45 | 30.74395 | 27.60481 | 43022 ft | 567 kts | 122° |
| 2026-04-26 18:46 | 30.70642 | 27.68529 | 43019 ft | 567 kts | 123° |
| 2026-04-26 18:46 | 30.66882 | 27.76577 | 43018 ft | 566 kts | 123° |
| 2026-04-26 18:47 | 30.63119 | 27.84612 | 43017 ft | 566 kts | 123° |
| 2026-04-26 18:47 | 30.59350 | 27.92644 | 43015 ft | 566 kts | 123° |
| 2026-04-26 18:48 | 30.55603 | 28.00612 | 43013 ft | 566 kts | 123° |
| 2026-04-26 18:48 | 30.51831 | 28.08616 | 43008 ft | 566 kts | 123° |
| 2026-04-26 18:49 | 30.48055 | 28.16614 | 43004 ft | 566 kts | 123° |
| 2026-04-26 18:49 | 30.44271 | 28.24612 | 43002 ft | 565 kts | 123° |
| 2026-04-26 18:50 | 30.40485 | 28.32596 | 43003 ft | 565 kts | 123° |
| 2026-04-26 18:50 | 30.36694 | 28.40574 | 43007 ft | 565 kts | 124° |
| 2026-04-26 18:51 | 30.32926 | 28.48487 | 43010 ft | 565 kts | 124° |
| 2026-04-26 18:51 | 30.29125 | 28.56455 | 43010 ft | 565 kts | 124° |
| 2026-04-26 18:52 | 30.25964 | 28.63069 | 43021 ft | 565 kts | 124° |
| 2026-04-26 18:52 | 30.21513 | 28.72361 | 43023 ft | 565 kts | 124° |
| 2026-04-26 18:53 | 30.17699 | 28.80308 | 43019 ft | 565 kts | 124° |
| 2026-04-26 18:53 | 30.13905 | 28.88195 | 43013 ft | 565 kts | 124° |
| 2026-04-26 18:54 | 30.10081 | 28.96131 | 42997 ft | 565 kts | 124° |
| 2026-04-26 18:54 | 30.06250 | 29.04063 | 42999 ft | 566 kts | 124° |
| 2026-04-26 18:55 | 30.02415 | 29.11989 | 42996 ft | 566 kts | 124° |
| 2026-04-26 18:55 | 29.98570 | 29.19919 | 42986 ft | 566 kts | 124° |
| 2026-04-26 18:56 | 29.94747 | 29.27789 | 42988 ft | 566 kts | 125° |
| 2026-04-26 18:56 | 29.90893 | 29.35705 | 42987 ft | 566 kts | 125° |
| 2026-04-26 18:57 | 29.88202 | 29.40911 | 42990 ft | 562 kts | 131° |
| 2026-04-26 18:57 | 29.82032 | 29.50470 | 42991 ft | 557 kts | 135° |
| 2026-04-26 18:58 | 29.77214 | 29.57461 | 42992 ft | 557 kts | 135° |
| 2026-04-26 18:58 | 29.72432 | 29.64400 | 42987 ft | 558 kts | 135° |
| 2026-04-26 18:59 | 29.67628 | 29.71415 | 42992 ft | 558 kts | 135° |
| 2026-04-26 18:59 | 29.62831 | 29.78431 | 42992 ft | 558 kts | 135° |
| 2026-04-26 19:00 | 29.58034 | 29.85440 | 42990 ft | 558 kts | 135° |
| 2026-04-26 19:00 | 29.53261 | 29.92397 | 42992 ft | 558 kts | 135° |
| 2026-04-26 19:01 | 29.48455 | 29.99391 | 42990 ft | 558 kts | 135° |
| 2026-04-26 19:01 | 29.43644 | 30.06378 | 42988 ft | 558 kts | 135° |
| 2026-04-26 19:02 | 29.39647 | 30.12174 | 42994 ft | 557 kts | 136° |
| 2026-04-26 19:02 | 29.35616 | 30.18012 | 42990 ft | 557 kts | 136° |
| 2026-04-26 19:03 | 29.30022 | 30.26098 | 42991 ft | 557 kts | 136° |
| 2026-04-26 19:03 | 29.25201 | 30.33055 | 42991 ft | 557 kts | 136° |
| 2026-04-26 19:04 | 29.20412 | 30.39954 | 42993 ft | 557 kts | 136° |
| 2026-04-26 19:04 | 29.15593 | 30.46887 | 42998 ft | 557 kts | 136° |
| 2026-04-26 19:05 | 29.08353 | 30.57277 | 43007 ft | 556 kts | 136° |
| 2026-04-26 19:06 | 29.03526 | 30.64189 | 43009 ft | 556 kts | 136° |
| 2026-04-26 19:06 | 28.98700 | 30.71089 | 43005 ft | 556 kts | 136° |
| 2026-04-26 19:07 | 28.93907 | 30.77931 | 43009 ft | 555 kts | 136° |
| 2026-04-26 19:07 | 28.89081 | 30.84809 | 43014 ft | 555 kts | 136° |
| 2026-04-26 19:08 | 28.84252 | 30.91678 | 43017 ft | 555 kts | 136° |
| 2026-04-26 19:08 | 28.79418 | 30.98545 | 43025 ft | 555 kts | 136° |
| 2026-04-26 19:09 | 28.74586 | 31.05396 | 43028 ft | 555 kts | 136° |
| 2026-04-26 19:09 | 28.69783 | 31.12196 | 43029 ft | 554 kts | 136° |
| 2026-04-26 19:10 | 28.64943 | 31.19036 | 43035 ft | 554 kts | 136° |
| 2026-04-26 19:10 | 28.60103 | 31.25867 | 43031 ft | 554 kts | 136° |
| 2026-04-26 19:11 | 28.55258 | 31.32693 | 43040 ft | 554 kts | 137° |
| 2026-04-26 19:11 | 28.50410 | 31.39512 | 43041 ft | 555 kts | 137° |
| 2026-04-26 19:12 | 28.45587 | 31.46283 | 43039 ft | 555 kts | 137° |
| 2026-04-26 19:12 | 28.40727 | 31.53098 | 43044 ft | 555 kts | 137° |
| 2026-04-26 19:13 | 28.35861 | 31.59909 | 43050 ft | 555 kts | 137° |
| 2026-04-26 19:13 | 28.30990 | 31.66716 | 43047 ft | 556 kts | 137° |
| 2026-04-26 19:14 | 28.26115 | 31.73517 | 43061 ft | 556 kts | 137° |
| 2026-04-26 19:14 | 28.21263 | 31.80275 | 43058 ft | 556 kts | 137° |
| 2026-04-26 19:15 | 28.16381 | 31.87065 | 43062 ft | 556 kts | 137° |
| 2026-04-26 19:15 | 28.11500 | 31.93846 | 42855 ft | 551 kts | 137° |
| 2026-04-26 19:15 | 28.09088 | 31.97200 | 42336 ft | 547 kts | 137° |
| 2026-04-26 19:16 | 28.06681 | 32.00538 | 41639 ft | 548 kts | 137° |
| 2026-04-26 19:16 | 28.04277 | 32.03903 | 40896 ft | 553 kts | 135° |
| 2026-04-26 19:16 | 28.02214 | 32.07635 | 40318 ft | 563 kts | 126° |
| 2026-04-26 19:16 | 28.00305 | 32.11516 | 39691 ft | 565 kts | 126° |
| 2026-04-26 19:17 | 27.98403 | 32.15432 | 38863 ft | 571 kts | 126° |
| 2026-04-26 19:17 | 27.96509 | 32.19342 | 37820 ft | 578 kts | 126° |
| 2026-04-26 19:17 | 27.94576 | 32.23341 | 36840 ft | 582 kts | 125° |
| 2026-04-26 19:17 | 27.92640 | 32.27353 | 35917 ft | 577 kts | 125° |
| 2026-04-26 19:18 | 27.90721 | 32.31333 | 35044 ft | 579 kts | 125° |
| 2026-04-26 19:18 | 27.88788 | 32.35328 | 34184 ft | 579 kts | 125° |
| 2026-04-26 19:18 | 27.86860 | 32.39313 | 33284 ft | 575 kts | 125° |
| 2026-04-26 19:18 | 27.84952 | 32.43256 | 32413 ft | 569 kts | 125° |
| 2026-04-26 19:19 | 27.83053 | 32.47172 | 31649 ft | 567 kts | 124° |
| 2026-04-26 19:19 | 27.81163 | 32.51064 | 31173 ft | 564 kts | 124° |
| 2026-04-26 19:19 | 27.79261 | 32.54973 | 31023 ft | 570 kts | 124° |
| 2026-04-26 19:20 | 27.75465 | 32.62774 | 30991 ft | 571 kts | 124° |
| 2026-04-26 19:20 | 27.71642 | 32.70620 | 30990 ft | 571 kts | 124° |
| 2026-04-26 19:21 | 27.67811 | 32.78465 | 30980 ft | 571 kts | 124° |
| 2026-04-26 19:21 | 27.63990 | 32.86280 | 30808 ft | 561 kts | 124° |
| 2026-04-26 19:21 | 27.62125 | 32.90098 | 30375 ft | 544 kts | 124° |
| 2026-04-26 19:22 | 27.60333 | 32.93769 | 29624 ft | 527 kts | 124° |
| 2026-04-26 19:22 | 27.58575 | 32.97351 | 28582 ft | 518 kts | 124° |
| 2026-04-26 19:22 | 27.56839 | 33.00882 | 27536 ft | 512 kts | 124° |
| 2026-04-26 19:22 | 27.55125 | 33.04363 | 26542 ft | 505 kts | 124° |
| 2026-04-26 19:23 | 27.53452 | 33.07762 | 25584 ft | 499 kts | 124° |
| 2026-04-26 19:23 | 27.51779 | 33.11159 | 24653 ft | 493 kts | 124° |
| 2026-04-26 19:23 | 27.50122 | 33.14519 | 23767 ft | 487 kts | 124° |
| 2026-04-26 19:23 | 27.48487 | 33.17833 | 22761 ft | 481 kts | 123° |
| 2026-04-26 19:24 | 27.46874 | 33.21107 | 21676 ft | 474 kts | 124° |
| 2026-04-26 19:24 | 27.45287 | 33.24323 | 20628 ft | 465 kts | 124° |
| 2026-04-26 19:24 | 27.42212 | 33.30549 | 18642 ft | 445 kts | 124° |
| 2026-04-26 19:25 | 27.40724 | 33.33554 | 17628 ft | 435 kts | 124° |
| 2026-04-26 19:25 | 27.39754 | 33.35512 | 17049 ft | 431 kts | 124° |
| 2026-04-26 19:25 | 27.38100 | 33.39637 | 16266 ft | 433 kts | 107° |
| 2026-04-26 19:25 | 27.37570 | 33.42897 | 15866 ft | 426 kts | 101° |
| 2026-04-26 19:26 | 27.37183 | 33.46181 | 15334 ft | 421 kts | 100° |
| 2026-04-26 19:26 | 27.36810 | 33.49425 | 14774 ft | 416 kts | 100° |
| 2026-04-26 19:26 | 27.36431 | 33.52635 | 14229 ft | 412 kts | 100° |
| 2026-04-26 19:26 | 27.35980 | 33.55799 | 13669 ft | 406 kts | 107° |
| 2026-04-26 19:27 | 27.34886 | 33.58643 | 13106 ft | 391 kts | 128° |
| 2026-04-26 19:27 | 27.33047 | 33.60777 | 12605 ft | 373 kts | 150° |
| 2026-04-26 19:27 | 27.30758 | 33.61958 | 12137 ft | 356 kts | 169° |
| 2026-04-26 19:27 | 27.28418 | 33.62615 | 11634 ft | 349 kts | 172° |
| 2026-04-26 19:28 | 27.26049 | 33.63238 | 10966 ft | 350 kts | 172° |
| 2026-04-26 19:28 | 27.23706 | 33.63885 | 10659 ft | 339 kts | 171° |
| 2026-04-26 19:28 | 27.21480 | 33.64524 | 10562 ft | 322 kts | 171° |
| 2026-04-26 19:28 | 27.19360 | 33.65142 | 10454 ft | 307 kts | 171° |
| 2026-04-26 19:29 | 27.17342 | 33.65738 | 10327 ft | 293 kts | 171° |
| 2026-04-26 19:29 | 27.15408 | 33.66307 | 10205 ft | 282 kts | 171° |
| 2026-04-26 19:29 | 27.13516 | 33.66861 | 9882 ft | 281 kts | 171° |
| 2026-04-26 19:29 | 27.11613 | 33.67415 | 9508 ft | 285 kts | 171° |
| 2026-04-26 19:30 | 27.09685 | 33.67979 | 9166 ft | 287 kts | 171° |
| 2026-04-26 19:30 | 27.07784 | 33.68540 | 8831 ft | 286 kts | 170° |
| 2026-04-26 19:30 | 27.05869 | 33.69107 | 8494 ft | 284 kts | 170° |
| 2026-04-26 19:30 | 27.04576 | 33.69489 | 8273 ft | 284 kts | 169° |
| 2026-04-26 19:31 | 27.02053 | 33.70235 | 7837 ft | 283 kts | 169° |
| 2026-04-26 19:31 | 27.00154 | 33.70796 | 7502 ft | 282 kts | 169° |
| 2026-04-26 19:31 | 26.98262 | 33.71356 | 7172 ft | 281 kts | 169° |
| 2026-04-26 19:31 | 26.96373 | 33.71913 | 6837 ft | 280 kts | 168° |
| 2026-04-26 19:32 | 26.94490 | 33.72494 | 6507 ft | 281 kts | 165° |
| 2026-04-26 19:32 | 26.92766 | 33.73540 | 6146 ft | 286 kts | 140° |
| 2026-04-26 19:32 | 26.91688 | 33.75367 | 5936 ft | 282 kts | 111° |
| 2026-04-26 19:32 | 26.91498 | 33.77541 | 5491 ft | 285 kts | 80° |
| 2026-04-26 19:33 | 26.92284 | 33.79547 | 5087 ft | 282 kts | 50° |
| 2026-04-26 19:33 | 26.93750 | 33.80896 | 4758 ft | 275 kts | 26° |
| 2026-04-26 19:33 | 26.95403 | 33.81955 | 4319 ft | 274 kts | 33° |
| 2026-04-26 19:33 | 26.96743 | 33.83475 | 3986 ft | 271 kts | 49° |
| 2026-04-26 19:34 | 26.98181 | 33.84710 | 3762 ft | 255 kts | 17° |
| 2026-04-26 19:34 | 26.99823 | 33.84823 | 3521 ft | 227 kts | 341° |
| 2026-04-26 19:34 | 27.01217 | 33.84220 | 3345 ft | 205 kts | 335° |
| 2026-04-26 19:34 | 27.02490 | 33.83692 | 3179 ft | 186 kts | 340° |
| 2026-04-26 19:35 | 27.03705 | 33.83308 | 2822 ft | 179 kts | 343° |
| 2026-04-26 19:35 | 27.04889 | 33.82966 | 2374 ft | 170 kts | 343° |
| 2026-04-26 19:35 | 27.05981 | 33.82640 | 2114 ft | 156 kts | 342° |
| 2026-04-26 19:35 | 27.06967 | 33.82339 | 1931 ft | 143 kts | 342° |
| 2026-04-26 19:36 | 27.07894 | 33.82065 | 1745 ft | 133 kts | 341° |
| 2026-04-26 19:36 | 27.08474 | 33.81893 | 1614 ft | 127 kts | 340° |
| 2026-04-26 19:36 | 27.09578 | 33.81563 | 1417 ft | 121 kts | 340° |
| 2026-04-26 19:36 | 27.10395 | 33.81316 | 1251 ft | 122 kts | 341° |
| 2026-04-26 19:37 | 27.11213 | 33.81074 | 1082 ft | 121 kts | 344° |
| 2026-04-26 19:37 | 27.12023 | 33.80834 | 931 ft | 121 kts | 345° |
| 2026-04-26 19:37 | 27.12831 | 33.80594 | 754 ft | 119 kts | 345° |
| 2026-04-26 19:37 | 27.13638 | 33.80362 | 631 ft | 121 kts | 345° |
| 2026-04-26 19:38 | 27.14449 | 33.80132 | 417 ft | 122 kts | 341° |
| 2026-04-26 19:38 | 27.15264 | 33.79894 | 257 ft | 119 kts | 340° |
| 2026-04-26 19:38 | 27.16074 | 33.79642 | 141 ft | 122 kts | 342° |
| 2026-04-26 19:38 | 27.16807 | 33.79417 | 117 ft | 81 kts | 345° |
| 2026-04-26 19:39 | 27.17219 | 33.79296 | 112 ft | 55 kts | 346° |
| 2026-04-26 19:39 | 27.17571 | 33.79191 | 105 ft | 49 kts | 345° |
| 2026-04-26 19:39 | 27.17887 | 33.79176 | 105 ft | 38 kts | 14° |
| 2026-04-26 19:39 | 27.17946 | 33.79263 | 103 ft | 13 kts | 124° |
| 2026-04-26 19:40 | 27.17851 | 33.79310 | 102 ft | 17 kts | 160° |
| 2026-04-26 19:40 | 27.17728 | 33.79351 | 106 ft | 19 kts | 169° |
| 2026-04-26 19:40 | 27.17589 | 33.79380 | 106 ft | 22 kts | 169° |
| 2026-04-26 19:40 | 27.17434 | 33.79422 | 106 ft | 24 kts | 163° |
| 2026-04-26 19:41 | 27.17269 | 33.79478 | 109 ft | 24 kts | 159° |
| 2026-04-26 19:41 | 27.17260 | 33.79625 | 100 ft | 23 kts | 72° |
| 2026-04-26 19:41 | 27.17307 | 33.79848 | 65 ft | 36 kts | 77° |
| 2026-04-26 19:41 | 27.17339 | 33.79976 | 59 ft | 15 kts | 71° |
| 2026-04-26 19:42 | 27.17383 | 33.80156 | 60 ft | 20 kts | 75° |
| 2026-04-26 19:42 | 27.17426 | 33.80327 | 52 ft | 25 kts | 74° |
| 2026-04-26 19:42 | 27.17446 | 33.80415 | 54 ft | 0 kts | 76° |
| 2026-04-26 19:43 | 27.17450 | 33.80434 | 56 ft | 5 kts | 76° |
| 2026-04-26 19:43 | 27.17465 | 33.80495 | 57 ft | 12 kts | 73° |
| 2026-04-26 19:43 | 27.17508 | 33.80600 | 59 ft | 16 kts | 36° |
| 2026-04-26 19:44 | 27.17592 | 33.80605 | 62 ft | 9 kts | 9° |
| 2026-04-26 19:44 | 27.17625 | 33.80660 | 57 ft | 9 kts | 75° |
| 2026-04-26 19:44 | 27.17631 | 33.80689 | 58 ft | 0 kts | 74° |